Time;durP1;ratioP1;P1;durP2;ratioP2;P2;SDS_P1;SDS_P2;PMS_P1;PMS_P2;Temp;Humidity;BMP_temperature;BMP_pressure;BME280_temperature;BME280_humidity;BME280_pressure;Samples;Min_cycle;Max_cycle;Signal;HPM_P1;HPM_P2
2023/03/29 00:01:56;;;;;;;5.60;2.30;;;5.80;99.90;;;;;;5102555;27;20147;-70
2023/03/29 00:04:22;;;;;;;3.65;2.28;;;5.80;99.90;;;;;;5108998;27;20054;-70
2023/03/29 00:06:49;;;;;;;4.32;2.30;;;5.70;99.90;;;;;;5127234;27;20413;-70
2023/03/29 00:09:15;;;;;;;3.45;2.30;;;5.70;99.90;;;;;;5129036;27;20474;-71
2023/03/29 00:11:41;;;;;;;4.20;2.10;;;5.70;99.90;;;;;;5121783;27;20039;-71
2023/03/29 00:14:07;;;;;;;3.30;2.17;;;5.70;99.90;;;;;;5106304;27;20047;-71
2023/03/29 00:16:32;;;;;;;4.40;2.40;;;5.70;99.90;;;;;;5123898;27;20447;-70
2023/03/29 00:18:58;;;;;;;5.32;2.55;;;5.70;99.90;;;;;;5121551;27;20039;-71
2023/03/29 00:21:24;;;;;;;3.78;2.20;;;5.70;99.90;;;;;;5115334;27;20408;-71
2023/03/29 00:23:50;;;;;;;4.47;2.25;;;5.70;99.90;;;;;;5107926;27;20564;-71
2023/03/29 00:26:15;;;;;;;5.25;2.40;;;5.70;99.90;;;;;;5124789;27;20042;-71
2023/03/29 00:28:41;;;;;;;6.22;2.50;;;5.60;99.90;;;;;;5127436;27;20556;-71
2023/03/29 00:31:12;;;;;;;2.95;2.30;;;5.60;99.90;;;;;;5125104;27;20427;-71
2023/03/29 00:33:40;;;;;;;6.10;2.60;;;5.60;99.90;;;;;;5111975;27;20046;-70
2023/03/29 00:36:07;;;;;;;5.15;2.45;;;5.60;99.90;;;;;;5123691;27;20035;-70
2023/03/29 00:38:34;;;;;;;4.18;2.47;;;5.70;99.90;;;;;;5118226;27;20066;-71
2023/03/29 00:41:00;;;;;;;5.22;2.28;;;5.70;99.90;;;;;;5118126;27;20035;-69
2023/03/29 00:43:26;;;;;;;6.15;2.63;;;5.70;99.90;;;;;;5126312;27;20106;-70
2023/03/29 00:45:52;;;;;;;3.75;2.38;;;5.70;99.90;;;;;;5124848;27;20042;-72
2023/03/29 00:48:28;;;;;;;4.88;3.47;;;5.70;99.90;;;;;;5127006;27;20042;-70
2023/03/29 00:51:00;;;;;;;7.80;3.38;;;5.70;99.90;;;;;;5106683;27;20039;-70
2023/03/29 00:53:34;;;;;;;4.88;2.97;;;5.60;99.90;;;;;;5132742;27;20087;-72
2023/03/29 00:56:12;;;;;;;6.75;3.15;;;5.70;99.90;;;;;;5120278;27;20035;-70
2023/03/29 00:59:08;;;;;;;4.85;3.08;;;5.70;99.90;;;;;;5118341;27;20066;-70
2023/03/29 01:01:45;;;;;;;6.68;3.10;;;5.70;99.90;;;;;;5159372;27;20423;-71
2023/03/29 01:04:21;;;;;;;6.13;2.50;;;5.70;99.90;;;;;;5124150;27;20042;-70
2023/03/29 01:07:03;;;;;;;5.60;3.20;;;5.70;99.90;;;;;;5123722;27;20060;-71
2023/03/29 01:09:32;;;;;;;5.57;3.45;;;5.60;99.90;;;;;;5125014;27;20039;-72
2023/03/29 01:12:02;;;;;;;4.43;2.83;;;5.70;99.90;;;;;;5103141;27;20485;-71
2023/03/29 01:14:38;;;;;;;5.10;3.25;;;5.70;99.90;;;;;;5119240;27;20031;-71
2023/03/29 01:17:04;;;;;;;6.97;3.58;;;5.70;99.90;;;;;;5117194;27;20042;-70
2023/03/29 01:19:37;;;;;;;8.18;3.05;;;5.70;99.90;;;;;;5106715;27;20535;-70
2023/03/29 01:22:41;;;;;;;7.53;3.38;;;5.70;99.90;;;;;;5109795;27;20034;-72
2023/03/29 01:25:21;;;;;;;5.60;3.28;;;5.70;99.90;;;;;;5124378;27;20042;-71
2023/03/29 01:28:16;;;;;;;5.15;3.35;;;5.70;99.90;;;;;;5121655;27;20080;-70
2023/03/29 01:30:50;;;;;;;6.40;3.47;;;5.60;99.90;;;;;;5122681;27;20117;-70
2023/03/29 01:33:48;;;;;;;6.28;3.33;;;5.70;99.90;;;;;;5123250;27;20035;-71
2023/03/29 01:36:23;;;;;;;6.60;3.45;;;5.70;99.90;;;;;;5065660;28;20044;-72
2023/03/29 01:39:03;;;;;;;7.85;3.47;;;5.60;99.90;;;;;;5062799;28;20134;-70
2023/03/29 01:42:05;;;;;;;5.28;3.65;;;5.70;99.90;;;;;;5033556;28;20045;-72
2023/03/29 01:44:37;;;;;;;4.28;3.45;;;5.60;99.90;;;;;;5055219;28;20032;-70
2023/03/29 01:47:17;;;;;;;5.13;3.53;;;5.60;99.90;;;;;;5055558;28;20521;-70
2023/03/29 01:50:03;;;;;;;5.10;3.22;;;5.60;99.90;;;;;;5059162;28;20032;-71
2023/03/29 01:52:38;;;;;;;9.65;3.50;;;5.60;99.90;;;;;;5046069;28;20063;-71
2023/03/29 01:55:13;;;;;;;4.75;3.17;;;5.60;99.90;;;;;;5040669;28;20202;-72
2023/03/29 01:57:42;;;;;;;3.65;3.20;;;5.60;99.90;;;;;;5058525;28;20044;-70
2023/03/29 02:00:14;;;;;;;6.85;3.45;;;5.60;99.90;;;;;;5058417;28;20821;-70
2023/03/29 02:02:43;;;;;;;4.90;3.65;;;5.60;99.90;;;;;;5056049;28;20044;-70
2023/03/29 02:05:11;;;;;;;5.55;3.22;;;5.60;99.90;;;;;;5055281;28;20571;-70
2023/03/29 02:07:39;;;;;;;6.63;3.38;;;5.60;99.90;;;;;;5063341;28;20035;-70
2023/03/29 02:10:07;;;;;;;7.00;3.72;;;5.60;99.90;;;;;;5055208;28;20589;-71
2023/03/29 02:12:33;;;;;;;6.43;3.67;;;5.70;99.90;;;;;;5092795;27;20040;-70
2023/03/29 02:14:59;;;;;;;5.18;3.33;;;5.60;99.90;;;;;;5123712;27;20043;-69
2023/03/29 02:17:27;;;;;;;5.32;3.45;;;5.70;99.90;;;;;;5150030;27;20040;-70
2023/03/29 02:20:13;;;;;;;6.82;3.40;;;5.60;99.90;;;;;;5121496;27;20486;-70
2023/03/29 02:23:08;;;;;;;5.50;3.30;;;5.70;99.90;;;;;;5118711;27;20036;-70
2023/03/29 02:25:36;;;;;;;6.72;3.58;;;5.70;99.90;;;;;;5010326;28;20053;-70
2023/03/29 02:28:03;;;;;;;5.60;3.45;;;5.70;99.90;;;;;;5014020;28;20073;-70
2023/03/29 02:30:45;;;;;;;7.25;3.85;;;5.60;99.90;;;;;;5030378;28;20068;-70
2023/03/29 02:33:38;;;;;;;5.45;3.53;;;5.60;99.90;;;;;;5011393;28;20045;-69
2023/03/29 02:36:16;;;;;;;5.32;3.08;;;5.60;99.90;;;;;;5013231;28;20540;-70
2023/03/29 02:38:42;;;;;;;6.05;3.33;;;5.60;99.90;;;;;;5012067;28;20452;-71
2023/03/29 02:41:09;;;;;;;7.53;3.80;;;5.60;99.90;;;;;;5030103;28;20083;-71
2023/03/29 02:43:38;;;;;;;6.20;3.50;;;5.70;99.90;;;;;;4997649;28;20120;-71
2023/03/29 02:46:06;;;;;;;5.20;3.53;;;5.70;99.90;;;;;;5009775;28;20048;-70
2023/03/29 02:48:35;;;;;;;5.90;3.70;;;5.70;99.90;;;;;;4997294;28;20555;-71
2023/03/29 02:51:07;;;;;;;8.82;4.03;;;5.70;99.90;;;;;;5014099;28;20536;-70
2023/03/29 02:53:39;;;;;;;;;;;5.70;99.90;;;;;;5014324;28;20084;-71
2023/03/29 02:56:05;;;;;;;6.68;3.80;;;5.70;99.90;;;;;;4997369;28;19937;-71
2023/03/29 02:58:30;;;;;;;5.15;3.95;;;5.70;99.90;;;;;;5012349;28;20116;-70
2023/03/29 03:00:59;;;;;;;6.28;4.43;;;5.70;99.90;;;;;;5014066;28;20461;-71
2023/03/29 03:03:25;;;;;;;4.40;3.50;;;5.70;99.90;;;;;;5078123;28;20101;-71
2023/03/29 03:05:51;;;;;;;7.72;4.15;;;5.70;99.90;;;;;;5110188;27;20155;-70
2023/03/29 03:08:17;;;;;;;8.10;3.90;;;5.70;99.90;;;;;;5091046;28;20142;-70
2023/03/29 03:10:45;;;;;;;6.97;3.80;;;5.70;99.90;;;;;;5091394;28;20047;-71
2023/03/29 03:13:11;;;;;;;6.93;4.00;;;5.70;99.90;;;;;;5091778;28;20043;-71
2023/03/29 03:15:41;;;;;;;7.72;4.30;;;5.70;99.90;;;;;;5091514;28;20044;-70
2023/03/29 03:18:08;;;;;;;6.20;4.10;;;5.70;99.90;;;;;;5088611;28;20387;-71
2023/03/29 03:20:34;;;;;;;7.55;4.53;;;5.70;99.90;;;;;;5077126;28;20036;-70
2023/03/29 03:23:02;;;;;;;6.32;4.63;;;5.70;99.90;;;;;;5089589;28;20047;-71
2023/03/29 03:25:28;;;;;;;7.07;4.50;;;5.70;99.90;;;;;;5094881;28;20051;-72
2023/03/29 03:27:54;;;;;;;7.75;4.35;;;5.70;99.90;;;;;;5073815;28;20052;-71
2023/03/29 03:30:20;;;;;;;8.27;4.63;;;5.70;99.90;;;;;;5095949;28;20367;-72
2023/03/29 03:32:46;;;;;;;5.28;4.10;;;5.70;99.90;;;;;;5088676;28;20058;-71
2023/03/29 03:35:12;;;;;;;8.82;4.18;;;5.80;99.90;;;;;;5090587;28;20062;-71
2023/03/29 03:37:39;;;;;;;8.10;4.68;;;5.80;99.90;;;;;;5091720;28;20418;-69
2023/03/29 03:40:10;;;;;;;5.85;4.72;;;5.70;99.90;;;;;;5111160;27;20081;-70
2023/03/29 03:42:40;;;;;;;7.32;4.38;;;5.80;99.90;;;;;;5121382;27;20036;-70
2023/03/29 03:45:07;;;;;;;6.30;4.18;;;5.80;99.90;;;;;;5122943;27;20049;-70
2023/03/29 03:47:36;;;;;;;7.80;4.65;;;5.80;99.90;;;;;;5126047;27;20137;-71
2023/03/29 03:50:02;;;;;;;6.40;4.55;;;5.80;99.90;;;;;;5119737;27;20050;-70
2023/03/29 03:52:28;;;;;;;6.57;4.57;;;5.80;99.90;;;;;;5119763;27;20115;-70
2023/03/29 03:54:53;;;;;;;8.27;4.47;;;5.80;99.90;;;;;;5115441;27;20599;-70
2023/03/29 03:57:19;;;;;;;7.43;4.80;;;5.80;99.90;;;;;;5114048;27;20072;-70
2023/03/29 03:59:45;;;;;;;7.10;4.40;;;5.80;99.90;;;;;;5121348;27;20035;-70
2023/03/29 04:02:11;;;;;;;9.18;4.53;;;5.80;99.90;;;;;;5119805;27;20308;-71
2023/03/29 04:04:36;;;;;;;8.27;4.80;;;5.90;99.90;;;;;;5124051;27;20038;-71
2023/03/29 04:07:02;;;;;;;6.18;4.20;;;5.90;99.90;;;;;;5128798;27;20038;-71
2023/03/29 04:09:32;;;;;;;8.00;4.60;;;5.90;99.90;;;;;;5125278;27;20037;-71
2023/03/29 04:12:00;;;;;;;9.70;4.85;;;5.90;99.90;;;;;;5117133;27;20035;-70
2023/03/29 04:14:26;;;;;;;9.52;4.68;;;5.90;99.90;;;;;;5117203;27;20068;-71
2023/03/29 04:16:53;;;;;;;9.32;4.97;;;5.90;99.90;;;;;;5114344;27;20055;-70
2023/03/29 04:19:19;;;;;;;8.07;5.18;;;5.90;99.90;;;;;;5119451;27;20151;-70
2023/03/29 04:21:46;;;;;;;6.90;4.32;;;5.90;99.90;;;;;;5115170;27;20035;-70
2023/03/29 04:24:12;;;;;;;8.55;4.45;;;5.90;99.90;;;;;;5121050;27;20038;-71
2023/03/29 04:26:38;;;;;;;9.23;4.70;;;5.90;99.90;;;;;;5115514;27;20042;-71
2023/03/29 04:29:04;;;;;;;7.38;4.78;;;5.90;99.90;;;;;;5122552;27;20545;-70
2023/03/29 04:31:30;;;;;;;10.35;4.97;;;5.90;99.90;;;;;;5121042;27;20039;-71
2023/03/29 04:33:56;;;;;;;7.35;4.80;;;5.90;99.90;;;;;;5116031;27;20050;-70
2023/03/29 04:36:22;;;;;;;6.95;4.80;;;5.90;99.90;;;;;;5101287;27;20055;-70
2023/03/29 04:38:51;;;;;;;9.25;4.80;;;5.90;99.90;;;;;;5118632;27;20092;-71
2023/03/29 04:41:17;;;;;;;7.82;5.07;;;5.90;99.90;;;;;;5123852;27;20474;-72
2023/03/29 04:43:45;;;;;;;9.38;4.70;;;5.90;99.90;;;;;;5095546;27;20123;-71
2023/03/29 04:46:12;;;;;;;7.05;4.63;;;5.80;99.90;;;;;;5117813;27;20096;-70
2023/03/29 04:48:38;;;;;;;7.25;5.03;;;5.80;99.90;;;;;;5114777;27;20035;-71
2023/03/29 04:51:04;;;;;;;11.35;5.22;;;5.80;99.90;;;;;;5116882;27;20486;-72
2023/03/29 04:53:30;;;;;;;9.73;5.10;;;5.80;99.90;;;;;;5115460;27;20112;-71
2023/03/29 04:55:58;;;;;;;8.05;4.82;;;5.90;99.90;;;;;;5120992;27;20043;-71
2023/03/29 04:58:26;;;;;;;8.80;5.30;;;5.90;99.90;;;;;;5117250;27;20077;-72
2023/03/29 05:00:57;;;;;;;8.30;5.50;;;5.90;99.90;;;;;;5116200;27;20402;-70
2023/03/29 05:03:23;;;;;;;10.07;4.95;;;5.90;99.90;;;;;;5106854;28;20042;-70
2023/03/29 05:05:49;;;;;;;7.43;5.47;;;5.80;99.90;;;;;;5119512;27;20092;-71
2023/03/29 05:08:15;;;;;;;10.85;5.18;;;5.80;99.90;;;;;;5114235;27;20066;-72
2023/03/29 05:10:42;;;;;;;7.72;5.10;;;5.80;99.90;;;;;;5111776;27;20093;-71
2023/03/29 05:13:09;;;;;;;9.80;5.28;;;5.80;99.90;;;;;;5137294;27;20104;-71
2023/03/29 05:15:35;;;;;;;8.43;5.47;;;5.80;99.90;;;;;;5112230;27;20046;-71
2023/03/29 05:18:01;;;;;;;10.30;5.95;;;5.70;99.90;;;;;;5098125;28;20512;-71
2023/03/29 05:20:28;;;;;;;7.93;5.22;;;5.80;99.90;;;;;;5121686;28;20062;-71
2023/03/29 05:22:54;;;;;;;10.13;5.88;;;5.80;99.90;;;;;;5119759;28;21795;-69
2023/03/29 05:25:21;;;;;;;11.73;5.93;;;5.70;99.90;;;;;;5109003;28;20153;-73
2023/03/29 05:27:46;;;;;;;8.77;5.68;;;5.80;99.90;;;;;;5124851;28;20035;-72
2023/03/29 05:30:15;;;;;;;9.27;5.97;;;5.80;99.90;;;;;;5093235;28;20040;-71
2023/03/29 05:32:41;;;;;;;10.30;6.03;;;5.80;99.90;;;;;;5108848;28;20402;-71
2023/03/29 05:35:08;;;;;;;8.57;5.68;;;5.80;99.90;;;;;;5108931;28;20173;-73
2023/03/29 05:37:34;;;;;;;9.35;6.00;;;5.90;99.90;;;;;;5109180;28;20054;-70
2023/03/29 05:39:59;;;;;;;9.15;5.93;;;5.80;99.90;;;;;;5107679;28;20090;-70
2023/03/29 05:42:26;;;;;;;7.57;5.78;;;5.80;99.90;;;;;;5110244;28;20494;-71
2023/03/29 05:44:52;;;;;;;9.23;6.50;;;5.90;99.90;;;;;;5109469;28;20035;-71
2023/03/29 05:47:18;;;;;;;8.73;6.25;;;5.80;99.90;;;;;;5112495;28;20082;-70
2023/03/29 05:49:45;;;;;;;10.55;6.68;;;5.80;99.90;;;;;;5119481;28;20079;-71
2023/03/29 05:52:11;;;;;;;9.70;6.38;;;5.80;99.90;;;;;;5125985;27;20044;-69
2023/03/29 05:54:37;;;;;;;12.23;6.50;;;5.80;99.90;;;;;;5092895;28;20043;-71
2023/03/29 05:57:03;;;;;;;10.25;6.88;;;5.80;99.90;;;;;;5117659;28;20065;-71
2023/03/29 05:59:29;;;;;;;8.82;6.20;;;5.90;99.90;;;;;;5127023;28;20486;-70
2023/03/29 06:01:54;;;;;;;10.55;6.70;;;5.90;99.90;;;;;;5107859;28;20109;-70
2023/03/29 06:04:20;;;;;;;10.65;6.32;;;5.90;99.90;;;;;;5109070;28;20481;-70
2023/03/29 06:06:47;;;;;;;9.05;6.43;;;5.90;99.90;;;;;;5109443;28;20236;-74
2023/03/29 06:09:13;;;;;;;9.90;6.53;;;6.00;99.90;;;;;;5108027;28;20047;-70
2023/03/29 06:11:39;;;;;;;8.35;6.30;;;6.00;99.90;;;;;;5110729;28;20038;-71
2023/03/29 06:14:05;;;;;;;11.93;6.18;;;6.00;99.90;;;;;;5143718;27;20051;-73
2023/03/29 06:16:31;;;;;;;10.50;5.97;;;6.10;99.90;;;;;;5108379;28;20050;-70
2023/03/29 06:18:57;;;;;;;8.02;6.05;;;6.10;99.90;;;;;;5096650;28;20047;-71
2023/03/29 06:21:23;;;;;;;10.85;7.13;;;6.10;99.90;;;;;;5112953;27;20042;-73
2023/03/29 06:23:49;;;;;;;9.75;6.35;;;6.10;99.90;;;;;;5117646;27;20053;-72
2023/03/29 06:26:15;;;;;;;9.77;5.95;;;6.20;99.90;;;;;;5131371;27;20039;-72
2023/03/29 06:28:41;;;;;;;10.18;6.03;;;6.20;99.90;;;;;;5113204;27;20240;-73
2023/03/29 06:31:08;;;;;;;12.07;6.35;;;6.20;99.90;;;;;;5111296;28;20059;-70
2023/03/29 06:33:36;;;;;;;10.52;6.38;;;6.20;99.90;;;;;;5094667;28;20039;-70
2023/03/29 06:36:02;;;;;;;8.13;5.78;;;6.20;99.90;;;;;;5111537;28;20043;-71
2023/03/29 06:38:28;;;;;;;8.02;6.13;;;6.20;99.90;;;;;;5102061;27;20157;-69
2023/03/29 06:41:04;;;;;;;9.18;6.68;;;6.30;99.90;;;;;;5115754;27;20484;-70
2023/03/29 06:43:31;;;;;;;10.65;6.05;;;6.30;99.90;;;;;;5109087;27;20166;-73
2023/03/29 06:45:58;;;;;;;8.68;6.47;;;6.30;99.90;;;;;;5107268;27;20042;-71
2023/03/29 06:48:24;;;;;;;10.23;6.28;;;6.40;99.90;;;;;;5109748;28;20523;-71
2023/03/29 06:50:49;;;;;;;9.88;6.10;;;6.40;99.90;;;;;;5094061;28;20108;-71
2023/03/29 06:53:15;;;;;;;8.75;6.10;;;6.40;99.90;;;;;;5094240;28;20134;-71
2023/03/29 06:55:41;;;;;;;9.38;6.20;;;6.40;99.90;;;;;;5111351;28;20428;-70
2023/03/29 06:58:08;;;;;;;10.63;6.40;;;6.40;99.90;;;;;;5110071;27;20027;-70
2023/03/29 07:00:36;;;;;;;9.07;6.35;;;6.50;99.90;;;;;;5111358;28;20087;-71
2023/03/29 07:03:09;;;;;;;10.50;6.03;;;6.50;99.90;;;;;;5115529;27;20075;-71
2023/03/29 07:05:40;;;;;;;;;;;6.50;99.90;;;;;;5112068;27;20042;-69
2023/03/29 07:10:37;;;;;;;9.23;6.68;;;6.60;99.90;;;;;;5111045;28;20139;-69
2023/03/29 07:13:08;;;;;;;7.82;5.95;;;6.60;99.90;;;;;;5111475;28;20040;-72
2023/03/29 07:15:34;;;;;;;7.22;5.72;;;6.70;99.90;;;;;;5109853;28;20055;-70
2023/03/29 07:18:02;;;;;;;8.45;5.88;;;6.70;99.90;;;;;;5091634;28;20048;-71
2023/03/29 07:20:28;;;;;;;8.98;5.55;;;6.80;99.90;;;;;;5120611;27;20114;-69
2023/03/29 07:22:53;;;;;;;9.18;6.10;;;6.80;99.90;;;;;;5129866;27;20118;-72
2023/03/29 07:25:21;;;;;;;6.78;5.38;;;6.90;99.90;;;;;;5124304;27;20034;-71
2023/03/29 07:27:47;;;;;;;10.25;5.82;;;6.90;99.90;;;;;;5115753;27;20035;-72
2023/03/29 07:30:16;;;;;;;11.57;6.25;;;6.90;99.90;;;;;;5114429;27;20054;-70
2023/03/29 07:32:44;;;;;;;9.95;6.18;;;7.00;99.90;;;;;;5100846;27;20082;-70
2023/03/29 07:35:12;;;;;;;7.82;5.70;;;7.00;99.90;;;;;;5095491;28;20055;-71
2023/03/29 07:37:38;;;;;;;9.80;5.53;;;7.00;99.90;;;;;;5105501;27;20073;-70
2023/03/29 07:40:14;;;;;;;7.68;5.82;;;7.10;99.90;;;;;;5117678;27;20044;-72
2023/03/29 07:42:54;;;;;;;10.23;6.00;;;7.10;99.90;;;;;;5116771;27;20035;-70
2023/03/29 07:45:22;;;;;;;9.27;5.38;;;7.20;99.90;;;;;;5150943;27;20031;-71
2023/03/29 07:47:49;;;;;;;8.23;5.60;;;7.20;99.90;;;;;;5117485;27;20027;-69
2023/03/29 07:50:15;;;;;;;7.18;5.15;;;7.20;99.90;;;;;;5114678;27;20031;-71
2023/03/29 07:52:42;;;;;;;8.05;5.47;;;7.20;99.90;;;;;;5114385;27;20040;-71
2023/03/29 07:55:09;;;;;;;7.28;5.70;;;7.30;99.90;;;;;;5116659;27;20063;-70
2023/03/29 07:57:35;;;;;;;9.63;5.43;;;7.30;99.90;;;;;;5121024;27;20047;-71
2023/03/29 08:00:35;;;;;;;13.43;6.22;;;7.40;99.90;;;;;;5111804;27;20057;-70
2023/03/29 08:02:54;;;;;;;7.97;5.53;;;7.40;99.90;;;;;;5108184;28;20498;-70
2023/03/29 08:05:21;;;;;;;9.48;5.60;;;7.50;99.90;;;;;;5109612;28;20059;-70
2023/03/29 08:07:48;;;;;;;7.20;5.03;;;7.50;99.90;;;;;;5109682;28;20059;-70
2023/03/29 08:10:19;;;;;;;7.20;4.75;;;7.50;99.90;;;;;;5114115;27;20036;-71
2023/03/29 08:12:47;;;;;;;7.30;4.85;;;7.60;99.90;;;;;;5108934;27;20035;-70
2023/03/29 08:15:13;;;;;;;11.80;6.47;;;7.60;99.90;;;;;;5117985;27;20031;-72
2023/03/29 08:17:40;;;;;;;8.95;5.00;;;7.70;99.90;;;;;;5124926;27;20054;-68
2023/03/29 08:20:08;;;;;;;6.97;5.03;;;7.80;99.90;;;;;;5118549;27;20042;-69
2023/03/29 08:22:34;;;;;;;8.65;5.35;;;7.90;99.90;;;;;;5121400;27;20106;-70
2023/03/29 08:25:01;;;;;;;8.50;5.05;;;7.90;99.90;;;;;;5101629;27;20047;-70
2023/03/29 08:27:27;;;;;;;10.35;5.32;;;8.00;99.90;;;;;;5116564;27;20044;-70
2023/03/29 08:29:53;;;;;;;8.10;5.30;;;8.10;99.90;;;;;;5107188;28;20798;-69
2023/03/29 08:32:19;;;;;;;8.13;5.60;;;8.20;99.90;;;;;;5108475;28;20039;-71
2023/03/29 08:34:45;;;;;;;8.57;5.35;;;8.20;99.90;;;;;;5128958;27;20074;-70
2023/03/29 08:37:12;;;;;;;7.47;4.88;;;8.20;99.90;;;;;;5123382;27;20044;-70
2023/03/29 08:39:38;;;;;;;10.43;4.90;;;8.30;99.90;;;;;;5121116;27;20152;-70
2023/03/29 08:42:23;;;;;;;10.10;5.53;;;8.30;99.90;;;;;;5115260;27;20039;-71
2023/03/29 08:45:03;;;;;;;7.78;5.20;;;8.40;99.90;;;;;;5106470;28;20043;-71
2023/03/29 08:47:35;;;;;;;8.65;4.90;;;8.40;99.90;;;;;;5107471;27;20035;-71
2023/03/29 08:50:01;;;;;;;6.80;4.87;;;8.40;99.90;;;;;;5127935;27;20512;-70
2023/03/29 08:52:33;;;;;;;6.57;4.60;;;8.50;99.90;;;;;;5130770;27;20036;-71
2023/03/29 08:55:00;;;;;;;7.68;4.75;;;8.50;99.90;;;;;;5108756;28;20044;-70
2023/03/29 08:57:32;;;;;;;7.95;5.00;;;8.60;99.90;;;;;;5122290;27;20047;-70
2023/03/29 09:00:01;;;;;;;7.70;5.20;;;8.60;99.90;;;;;;5114242;27;20069;-70
2023/03/29 09:02:31;;;;;;;8.73;5.13;;;8.60;99.90;;;;;;5112750;27;20116;-69
2023/03/29 09:05:04;;;;;;;6.47;4.78;;;8.60;99.90;;;;;;5112662;27;20028;-70
2023/03/29 09:07:30;;;;;;;8.98;5.40;;;8.80;99.90;;;;;;5115092;27;20046;-69
2023/03/29 09:09:56;;;;;;;10.77;5.25;;;8.70;99.90;;;;;;5112755;27;20481;-70
2023/03/29 09:12:39;;;;;;;10.07;6.32;;;8.80;99.90;;;;;;5107229;28;20159;-70
2023/03/29 09:15:08;;;;;;;8.13;5.03;;;8.90;99.90;;;;;;5105886;28;20055;-70
2023/03/29 09:17:54;;;;;;;9.30;5.20;;;8.90;99.90;;;;;;5098202;28;20052;-71
2023/03/29 09:20:28;;;;;;;8.98;5.22;;;9.00;99.90;;;;;;5090774;28;20047;-69
2023/03/29 09:23:14;;;;;;;9.20;4.85;;;9.10;99.90;;;;;;5118400;28;20123;-71
2023/03/29 09:26:18;;;;;;;11.00;5.00;;;9.10;99.90;;;;;;5119274;28;20046;-70
2023/03/29 09:28:59;;;;;;;9.23;5.15;;;9.20;99.90;;;;;;5115149;28;20036;-73
2023/03/29 09:31:30;;;;;;;8.07;5.10;;;9.30;99.90;;;;;;5117750;28;20118;-70
2023/03/29 09:34:28;;;;;;;8.80;5.38;;;9.30;99.90;;;;;;5112360;28;20546;-72
2023/03/29 09:37:01;;;;;;;7.68;5.70;;;9.40;99.90;;;;;;5120307;28;20047;-69
2023/03/29 09:39:28;;;;;;;7.57;5.35;;;9.50;99.90;;;;;;5119001;28;20047;-70
2023/03/29 09:42:03;;;;;;;9.07;5.63;;;9.60;99.90;;;;;;5128884;28;20043;-70
2023/03/29 09:44:37;;;;;;;7.72;5.78;;;9.60;99.90;;;;;;5119673;28;20428;-71
2023/03/29 09:47:36;;;;;;;12.93;5.80;;;9.60;99.90;;;;;;5108541;28;20077;-70
2023/03/29 09:50:10;;;;;;;8.95;6.15;;;9.60;99.90;;;;;;5101957;28;20485;-70
2023/03/29 09:52:37;;;;;;;11.98;5.68;;;9.60;99.90;;;;;;5098931;28;20424;-70
2023/03/29 09:55:04;;;;;;;9.70;5.93;;;9.70;99.90;;;;;;5107952;27;20077;-71
2023/03/29 09:57:30;;;;;;;10.00;6.18;;;9.70;99.90;;;;;;5131299;27;20055;-70
2023/03/29 09:59:56;;;;;;;10.13;6.38;;;9.80;99.90;;;;;;5121807;27;20110;-72
2023/03/29 10:02:22;;;;;;;10.00;6.25;;;9.90;99.90;;;;;;5121950;27;20035;-71
2023/03/29 10:04:54;;;;;;;10.85;7.65;;;10.00;99.90;;;;;;5097456;28;20050;-67
2023/03/29 10:07:21;;;;;;;13.38;7.68;;;10.00;99.90;;;;;;5112443;28;20051;-68
2023/03/29 10:09:49;;;;;;;10.88;7.10;;;10.00;99.90;;;;;;5111737;28;20051;-66
2023/03/29 10:12:15;;;;;;;13.13;6.82;;;10.10;99.90;;;;;;5111857;28;20395;-67
2023/03/29 10:14:46;;;;;;;9.88;7.32;;;10.20;99.90;;;;;;5112711;28;20050;-68
2023/03/29 10:17:23;;;;;;;13.75;7.13;;;10.30;99.90;;;;;;5112001;28;20142;-67
2023/03/29 10:19:54;;;;;;;11.43;6.70;;;10.40;99.90;;;;;;5112293;27;20040;-68
2023/03/29 10:22:25;;;;;;;11.60;7.57;;;10.60;99.90;;;;;;5098317;28;20081;-68
2023/03/29 10:24:52;;;;;;;9.95;7.75;;;10.80;99.90;;;;;;5111998;28;20058;-68
2023/03/29 10:27:25;;;;;;;11.20;6.75;;;10.90;99.90;;;;;;5112547;28;20092;-70
2023/03/29 10:29:53;;;;;;;8.32;6.93;;;11.10;99.90;;;;;;5112475;28;20067;-67
2023/03/29 10:32:21;;;;;;;8.90;6.90;;;11.20;99.90;;;;;;5111696;28;20472;-69
2023/03/29 10:34:49;;;;;;;11.32;6.65;;;11.40;99.90;;;;;;5111978;28;20043;-68
2023/03/29 10:37:18;;;;;;;11.57;7.40;;;11.50;99.90;;;;;;5121697;27;20039;-68
2023/03/29 10:39:45;;;;;;;9.73;6.78;;;11.50;99.90;;;;;;5132306;27;20058;-67
2023/03/29 10:42:15;;;;;;;10.20;6.57;;;11.60;99.90;;;;;;5127490;27;20039;-68
2023/03/29 10:44:42;;;;;;;10.60;6.60;;;11.80;99.90;;;;;;5112062;28;20477;-69
2023/03/29 10:47:18;;;;;;;10.02;6.82;;;11.80;99.90;;;;;;5094727;28;20074;-66
2023/03/29 10:49:48;;;;;;;10.32;5.95;;;11.80;99.90;;;;;;5094903;28;20039;-67
2023/03/29 10:52:15;;;;;;;9.85;6.53;;;11.80;99.90;;;;;;5111435;28;20051;-69
2023/03/29 10:54:41;;;;;;;10.82;6.90;;;11.90;99.90;;;;;;5111324;28;20082;-70
2023/03/29 10:57:15;;;;;;;10.07;6.40;;;12.00;99.90;;;;;;5111387;28;20047;-67
2023/03/29 10:59:58;;;;;;;10.65;6.50;;;12.00;99.90;;;;;;5111853;28;20043;-69
2023/03/29 11:02:29;;;;;;;8.43;6.10;;;12.20;99.90;;;;;;5111306;28;20082;-68
2023/03/29 11:05:33;;;;;;;8.40;5.65;;;12.40;99.90;;;;;;5111044;28;20058;-67
2023/03/29 11:08:19;;;;;;;9.20;5.78;;;12.40;99.90;;;;;;5081047;28;20039;-69
2023/03/29 11:10:54;;;;;;;8.80;5.95;;;12.40;99.90;;;;;;5114245;27;20047;-70
2023/03/29 11:13:29;;;;;;;7.72;5.57;;;12.40;99.90;;;;;;5106611;27;20043;-71
2023/03/29 11:16:06;;;;;;;8.40;5.97;;;12.30;99.90;;;;;;5123197;27;20089;-71
2023/03/29 11:19:23;;;;;;;9.38;5.57;;;12.40;99.90;;;;;;5124403;27;20036;-71
2023/03/29 11:22:20;;;;;;;12.25;5.68;;;12.50;99.90;;;;;;5052728;28;20141;-70
2023/03/29 11:25:11;;;;;;;10.48;7.15;;;12.70;99.90;;;;;;4991591;28;20120;-71
2023/03/29 11:28:01;;;;;;;8.15;5.80;;;12.80;99.90;;;;;;5004029;28;20095;-71
2023/03/29 11:30:50;;;;;;;8.52;6.13;;;12.90;99.90;;;;;;4979981;28;20056;-72
2023/03/29 11:33:40;;;;;;;10.30;6.07;;;12.90;99.90;;;;;;5001592;28;20057;-72
2023/03/29 11:36:25;;;;;;;9.80;5.68;;;13.00;99.90;;;;;;4995104;28;20524;-69
2023/03/29 11:39:10;;;;;;;8.77;6.10;;;13.10;99.90;;;;;;5011611;28;20584;-71
2023/03/29 11:41:45;;;;;;;8.90;6.07;;;12.90;99.90;;;;;;4993948;28;20042;-71
2023/03/29 11:44:21;;;;;;;7.78;5.57;;;13.00;99.90;;;;;;4999884;28;20061;-70
2023/03/29 11:46:50;;;;;;;9.77;5.70;;;13.00;99.90;;;;;;5001047;28;20184;-72
2023/03/29 11:49:37;;;;;;;12.05;6.03;;;13.00;99.90;;;;;;4997456;28;20072;-72
2023/03/29 11:52:16;;;;;;;9.55;5.70;;;13.00;99.90;;;;;;5004033;28;20346;-71
2023/03/29 11:55:17;;;;;;;9.60;5.47;;;13.10;99.90;;;;;;5005217;28;20049;-70
2023/03/29 11:57:50;;;;;;;8.23;5.90;;;13.10;99.90;;;;;;4953691;28;20059;-72
2023/03/29 12:00:42;;;;;;;9.02;5.70;;;13.10;99.90;;;;;;4994610;28;20047;-70
2023/03/29 12:03:13;;;;;;;12.48;6.63;;;13.10;99.90;;;;;;5010976;28;20553;-70
2023/03/29 12:06:03;;;;;;;8.38;6.15;;;13.10;99.90;;;;;;5031675;28;20040;-72
2023/03/29 12:08:37;;;;;;;11.48;6.25;;;13.10;99.90;;;;;;5057298;28;20057;-70
2023/03/29 12:11:21;;;;;;;9.82;6.63;;;13.10;99.90;;;;;;5045356;28;20048;-71
2023/03/29 12:13:56;;;;;;;9.98;6.20;;;13.10;99.90;;;;;;5013236;28;20080;-70
2023/03/29 12:16:25;;;;;;;9.45;6.45;;;13.20;99.90;;;;;;5062060;28;20084;-70
2023/03/29 12:18:55;;;;;;;7.65;5.70;;;13.20;99.90;;;;;;5013968;28;20037;-70
2023/03/29 12:21:23;;;;;;;9.10;6.20;;;13.30;99.90;;;;;;5014932;28;20053;-71
2023/03/29 12:23:49;;;;;;;7.88;6.28;;;13.30;99.90;;;;;;5018904;28;21525;-71
2023/03/29 12:26:15;;;;;;;12.05;6.95;;;13.40;99.90;;;;;;5052352;28;20048;-70
2023/03/29 12:29:07;;;;;;;10.27;7.40;;;13.50;99.90;;;;;;4997030;28;20061;-70
2023/03/29 12:31:50;;;;;;;10.63;6.50;;;13.70;99.90;;;;;;5012576;28;20463;-71
2023/03/29 12:34:32;;;;;;;9.80;6.28;;;13.70;99.90;;;;;;5114522;27;20122;-70
2023/03/29 12:36:59;;;;;;;9.40;6.65;;;13.90;99.90;;;;;;5121080;27;20043;-71
2023/03/29 12:39:27;;;;;;;8.70;6.95;;;14.00;99.90;;;;;;5120471;27;20151;-72
2023/03/29 12:42:20;;;;;;;7.95;6.70;;;13.90;99.90;;;;;;5120531;27;20132;-69
2023/03/29 12:44:50;;;;;;;11.02;7.32;;;13.90;99.90;;;;;;5118143;27;20068;-71
2023/03/29 12:47:24;;;;;;;10.68;6.97;;;13.90;99.90;;;;;;5118335;27;20457;-72
2023/03/29 12:49:57;;;;;;;9.85;7.22;;;13.90;99.90;;;;;;5119923;27;20401;-72
2023/03/29 12:52:32;;;;;;;11.27;7.00;;;13.90;99.90;;;;;;5127616;27;20039;-71
2023/03/29 12:55:01;;;;;;;11.68;7.40;;;13.90;99.90;;;;;;5110649;28;20032;-71
2023/03/29 12:57:58;;;;;;;11.10;6.97;;;14.00;99.90;;;;;;5117283;27;20036;-69
2023/03/29 13:00:43;;;;;;;13.55;7.22;;;13.90;99.90;;;;;;5119313;27;20038;-70
2023/03/29 13:03:33;;;;;;;11.45;6.72;;;14.10;99.90;;;;;;5102523;27;20047;-72
2023/03/29 13:06:05;;;;;;;11.00;6.97;;;14.30;99.90;;;;;;5109936;27;20080;-72
2023/03/29 13:08:35;;;;;;;11.55;7.30;;;14.60;99.90;;;;;;5114611;27;20455;-71
2023/03/29 13:11:02;;;;;;;9.15;7.00;;;14.90;99.90;;;;;;5114869;27;20039;-72
2023/03/29 13:13:36;;;;;;;8.98;6.82;;;15.00;99.90;;;;;;5119471;27;20035;-71
2023/03/29 13:16:27;;;;;;;12.00;7.00;;;15.10;99.90;;;;;;5098661;27;20096;-71
2023/03/29 13:19:26;;;;;;;13.20;6.93;;;15.20;99.90;;;;;;5126629;27;20081;-71